KSLC/SLC METAR and TAF weather

Enter ICAO airport designator
Station Type Date Time Source
KSLC METAR 2022/05/26 04:54 UTC NOAA

KSLC 260454Z 17006KT 10SM FEW150 19/M03 A3001 RMK AO2 SLP118 T01891028


Station Type Date Time Source
KSLC Decoded METAR 2022/05/26 04:54 UTC NOAA

SALT LAKE CITY INTERNATIONAL AIRPORT , UT, United States (KSLC) 40-47N 111-58W 1286M
May 26, 2022 - 12:54 AM EDT / 2022.05.26 0454 UTC
Wind: from the S (170 degrees) at 7 MPH (6 KT):0
Visibility: 10 mile(s):0
Sky conditions: mostly clear
Temperature: 66.0 F (18.9 C)
Dew Point: 27.0 F (-2.8 C)
Relative Humidity: 22%
Pressure (altimeter): 30.01 in. Hg (1016 hPa)
ob: KSLC 260454Z 17006KT 10SM FEW150 19/M03 A3001 RMK AO2 SLP118 T01891028
cycle: 5

Station Type Date Time Source
KSLC TAF 2022/05/26 06:22 UTC NOAA

TAF KSLC 260520Z 2606/2712 15009KT P6SM SKC
FM261700 17012G22KT P6SM SCT160 SCT200
FM271000 24007KT P6SM SCT060 BKN100

Example: see airport list